Time;durP1;ratioP1;P1;durP2;ratioP2;P2;SDS_P1;SDS_P2;PMS_P1;PMS_P2;Temp;Humidity;BMP_temperature;BMP_pressure;BME280_temperature;BME280_humidity;BME280_pressure;Samples;Min_cycle;Max_cycle;Signal;HPM_P1;HPM_P2
2022/11/11 00:00:17;;;;;;;32.90;17.83;;;;;;;-145.18;100.00;46672.13;4991227;28;20038;-69
2022/11/11 00:02:43;;;;;;;33.60;18.20;;;;;;;-145.18;100.00;46670.16;4990796;28;20105;-69
2022/11/11 00:05:08;;;;;;;28.33;16.77;;;;;;;-145.18;100.00;46672.13;4991157;28;20527;-69
2022/11/11 00:07:34;;;;;;;36.50;18.73;;;;;;;-145.18;100.00;46668.22;4990953;28;20518;-69
2022/11/11 00:09:59;;;;;;;31.00;18.43;;;;;;;-145.18;100.00;46672.13;4991152;28;20046;-69
2022/11/11 00:12:24;;;;;;;27.20;17.57;;;;;;;-145.18;100.00;46672.13;4972741;28;20042;-69
2022/11/11 00:14:50;;;;;;;30.27;19.43;;;;;;;-145.18;100.00;46676.03;4990948;28;20034;-69
2022/11/11 00:25:27;;;;;;;31.50;19.20;;;;;;;-145.18;100.00;46676.03;4991173;28;20815;-69
2022/11/11 00:27:52;;;;;;;32.67;20.03;;;;;;;-145.18;100.00;46674.06;4973163;28;20287;-69
2022/11/11 00:30:18;;;;;;;35.53;19.53;;;;;;;-145.18;100.00;46679.94;4990331;28;20042;-69
2022/11/11 00:32:44;;;;;;;33.60;20.73;;;;;;;-145.18;100.00;46672.13;4990932;28;20034;-69
2022/11/11 00:37:53;;;;;;;32.03;20.07;;;;;;;-145.18;100.00;46674.06;4990948;28;20069;-69
2022/11/11 00:40:19;;;;;;;30.43;20.07;;;;;;;-145.18;100.00;46676.03;4990492;28;20379;-68
2022/11/11 00:42:44;;;;;;;35.17;21.53;;;;;;;-145.18;100.00;46679.94;4990806;28;20042;-68
2022/11/11 00:45:10;;;;;;;37.27;22.40;;;;;;;-145.18;100.00;46677.97;4990496;28;20045;-68
2022/11/11 00:53:15;;;;;;;37.13;23.23;;;;;;;-145.18;100.00;46674.06;4990422;28;20938;-68
2022/11/11 00:55:40;;;;;;;33.17;22.73;;;;;;;-145.18;100.00;46672.13;4990712;28;20260;-68
2022/11/11 00:58:06;;;;;;;38.10;24.20;;;;;;;-145.18;100.00;46676.03;4990591;28;20633;-68
2022/11/11 01:00:31;;;;;;;38.60;22.50;;;;;;;-145.18;100.00;46672.13;4990568;28;20030;-68
2022/11/11 01:02:57;;;;;;;42.80;23.53;;;;;;;-145.18;100.00;46676.03;4990315;28;20019;-68
2022/11/11 01:05:23;;;;;;;39.87;24.33;;;;;;;-145.18;100.00;46677.97;4990280;28;20074;-68
2022/11/11 01:07:49;;;;;;;43.67;24.37;;;;;;;-145.18;100.00;46670.16;4990342;28;20315;-68
2022/11/11 01:10:36;;;;;;;39.97;24.07;;;;;;;-145.18;100.00;46672.13;4990847;28;20042;-68
2022/11/11 01:13:13;;;;;;;37.55;23.33;;;;;;;-145.18;100.00;46672.13;4990178;28;20491;-68
2022/11/11 01:15:43;;;;;;;44.90;24.97;;;;;;;-145.18;100.00;46677.97;4990672;28;20124;-68
2022/11/11 01:18:10;;;;;;;44.00;24.57;;;;;;;-145.18;100.00;46672.13;4990280;28;20804;-68
2022/11/11 01:20:36;;;;;;;41.40;24.03;;;;;;;-145.18;100.00;46679.94;4990476;28;20346;-68
2022/11/11 01:23:06;;;;;;;45.40;23.77;;;;;;;-145.18;100.00;46672.13;4990199;28;20280;-68
2022/11/11 01:25:36;;;;;;;41.23;24.67;;;;;;;-145.18;100.00;46674.06;4993616;28;20041;-69
2022/11/11 01:28:03;;;;;;;36.43;24.67;;;;;;;-145.18;100.00;46668.22;4993935;28;20267;-68
2022/11/11 01:30:31;;;;;;;41.90;24.70;;;;;;;-145.18;100.00;46676.03;4988017;28;20367;-68
2022/11/11 01:32:56;;;;;;;48.33;25.70;;;;;;;-145.18;100.00;46672.13;4993753;28;20286;-68
2022/11/11 01:35:21;;;;;;;39.47;24.53;;;;;;;-145.18;100.00;46670.16;4993659;28;20362;-68
2022/11/11 01:37:47;;;;;;;43.40;23.70;;;;;;;-145.18;100.00;46674.06;4993602;28;20390;-68
2022/11/11 01:40:12;;;;;;;44.50;24.30;;;;;;;-145.18;100.00;46672.13;4993380;28;20069;-68
2022/11/11 01:43:03;;;;;;;37.53;23.70;;;;;;;-145.18;100.00;46676.03;4993605;28;20575;-68
2022/11/11 01:45:54;;;;;;;39.43;24.30;;;;;;;-145.18;100.00;46674.06;4993906;28;20034;-68
2022/11/11 01:51:33;;;;;;;40.97;23.83;;;;;;;-145.18;100.00;46668.22;4993865;28;20616;-68
2022/11/11 01:54:05;;;;;;;49.53;24.93;;;;;;;-145.18;100.00;46672.13;4993658;28;21126;-68
2022/11/11 01:56:30;;;;;;;44.27;23.93;;;;;;;-145.18;100.00;46668.22;4993678;28;20359;-68
2022/11/11 01:59:02;;;;;;;39.43;26.03;;;;;;;-145.18;100.00;46662.34;4993219;28;20374;-68
2022/11/11 02:01:27;;;;;;;49.30;27.27;;;;;;;-145.18;100.00;46672.13;4993081;28;20026;-68
2022/11/11 02:06:40;;;;;;;47.63;25.90;;;;;;;-145.18;100.00;46662.34;4993505;28;20033;-68
2022/11/11 02:09:06;;;;;;;45.23;26.97;;;;;;;-145.18;100.00;46672.13;4993340;28;20355;-68
2022/11/11 02:14:35;;;;;;;47.93;26.77;;;;;;;-145.18;100.00;46668.22;4993497;28;20081;-68
2022/11/11 02:17:01;;;;;;;46.30;25.97;;;;;;;-145.18;100.00;46668.22;4993124;28;20772;-68
2022/11/11 02:19:39;;;;;;;56.57;28.07;;;;;;;-145.18;100.00;46666.25;4992990;28;20299;-68
2022/11/11 02:22:10;;;;;;;53.07;28.83;;;;;;;-145.18;100.00;46664.31;4992749;28;20252;-68
2022/11/11 02:24:38;;;;;;;51.43;27.37;;;;;;;-145.18;100.00;46670.16;4993296;28;20617;-68
2022/11/11 02:27:07;;;;;;;50.87;28.10;;;;;;;-145.18;100.00;46670.16;4992363;28;20272;-68
2022/11/11 02:29:35;;;;;;;51.77;27.97;;;;;;;-145.18;100.00;46664.31;4993036;28;20271;-67
2022/11/11 02:32:01;;;;;;;60.40;29.13;;;;;;;-145.18;100.00;46670.16;4993070;28;20273;-67
2022/11/11 02:34:31;;;;;;;45.60;27.83;;;;;;;-145.18;100.00;46666.25;4992586;28;20275;-68
2022/11/11 02:36:57;;;;;;;49.83;28.30;;;;;;;-145.18;100.00;46664.31;4992028;28;20105;-68
2022/11/11 02:39:25;;;;;;;46.97;28.60;;;;;;;-145.18;100.00;46668.22;4992438;28;20311;-68
2022/11/11 02:41:56;;;;;;;49.00;28.27;;;;;;;-145.18;100.00;46666.25;4992487;28;20267;-68
2022/11/11 02:44:21;;;;;;;45.77;27.70;;;;;;;-145.18;100.00;46666.25;4992417;28;20823;-68
2022/11/11 02:46:47;;;;;;;47.87;28.90;;;;;;;-145.18;100.00;46670.16;4992484;28;20367;-68
2022/11/11 02:49:12;;;;;;;47.53;27.83;;;;;;;-145.18;100.00;46668.22;4992363;28;20088;-68
2022/11/11 02:51:38;;;;;;;54.77;29.13;;;;;;;-145.18;100.00;46666.25;4975024;28;20039;-68
2022/11/11 02:54:03;;;;;;;47.17;28.27;;;;;;;-145.18;100.00;46668.22;4992065;28;20062;-68
2022/11/11 02:59:12;;;;;;;54.20;27.07;;;;;;;-145.18;100.00;46664.31;4992036;28;20041;-68
2022/11/11 03:01:38;;;;;;;50.93;27.87;;;;;;;-145.18;100.00;46672.13;5265772;23;20308;-68
2022/11/11 03:04:04;;;;;;;49.83;27.47;;;;;;;-145.18;100.00;46666.25;5010207;28;20038;-69
2022/11/11 03:06:30;;;;;;;47.27;27.03;;;;;;;-145.18;100.00;46670.16;5011692;28;20112;-69
2022/11/11 03:08:55;;;;;;;50.07;26.13;;;;;;;-145.18;100.00;46666.25;5011750;28;20286;-69
2022/11/11 03:11:26;;;;;;;45.53;25.20;;;;;;;-145.18;100.00;46664.31;5012043;28;20037;-69
2022/11/11 03:13:59;;;;;;;48.03;26.23;;;;;;;-145.18;100.00;46666.25;5011116;28;20512;-69
2022/11/11 03:19:11;;;;;;;44.07;25.67;;;;;;;-145.18;100.00;46666.25;4983519;28;20323;-69
2022/11/11 03:21:36;;;;;;;52.23;24.97;;;;;;;-145.18;100.00;46664.31;5011225;28;20365;-69
2022/11/11 03:24:02;;;;;;;42.67;24.73;;;;;;;-145.18;100.00;46672.13;5011598;28;20061;-69
2022/11/11 03:26:27;;;;;;;46.00;24.97;;;;;;;-145.18;100.00;46666.25;5011213;28;20034;-69
2022/11/11 03:28:53;;;;;;;43.30;23.33;;;;;;;-145.18;100.00;46664.31;5011140;28;20026;-69
2022/11/11 03:31:18;;;;;;;40.60;23.10;;;;;;;-145.18;100.00;46666.25;5011748;28;20041;-69
2022/11/11 03:33:43;;;;;;;46.13;22.90;;;;;;;-145.18;100.00;46668.22;5011201;28;20037;-69
2022/11/11 03:36:09;;;;;;;47.10;21.83;;;;;;;-145.18;100.00;46664.31;5011541;28;20033;-69
2022/11/11 03:38:34;;;;;;;37.77;21.47;;;;;;;-145.18;100.00;46670.16;5010753;28;20036;-69
2022/11/11 03:41:00;;;;;;;34.27;20.13;;;;;;;-145.18;100.00;46666.25;5011317;28;20482;-68
2022/11/11 03:43:28;;;;;;;37.00;21.50;;;;;;;-145.18;100.00;46666.25;5011285;28;20059;-69
2022/11/11 03:45:57;;;;;;;39.40;21.60;;;;;;;-145.18;100.00;46670.16;5011182;28;20041;-69
2022/11/11 03:48:23;;;;;;;39.87;20.33;;;;;;;-145.18;100.00;46664.31;5010242;28;20275;-68
2022/11/11 03:50:49;;;;;;;41.87;23.17;;;;;;;-145.18;100.00;46664.31;5010958;28;20275;-69
2022/11/11 03:53:16;;;;;;;40.93;20.80;;;;;;;-145.18;100.00;46666.25;5010750;28;20295;-68
2022/11/11 03:55:42;;;;;;;39.70;20.20;;;;;;;-145.18;100.00;46666.25;5011026;28;20040;-69
2022/11/11 03:58:08;;;;;;;35.97;19.77;;;;;;;-145.18;100.00;46670.16;5010877;28;20268;-69
2022/11/11 04:00:34;;;;;;;38.60;20.70;;;;;;;-145.18;100.00;46666.25;5010930;28;20034;-69
2022/11/11 04:11:28;;;;;;;33.40;19.23;;;;;;;-145.18;100.00;46670.16;5011095;28;20262;-69
2022/11/11 04:16:42;;;;;;;35.10;19.80;;;;;;;-145.18;100.00;46666.25;4971784;28;20314;-69
2022/11/11 04:21:51;;;;;;;43.00;20.17;;;;;;;-145.18;100.00;46666.25;4971334;28;20586;-69
2022/11/11 04:27:14;;;;;;;36.13;20.10;;;;;;;-145.18;100.00;46668.22;4990229;28;20045;-69
2022/11/11 04:29:39;;;;;;;34.73;18.97;;;;;;;-145.18;100.00;46670.16;4990926;28;20510;-68
2022/11/11 04:34:54;;;;;;;36.90;19.70;;;;;;;-145.18;100.00;46670.16;4991139;28;20129;-68
2022/11/11 04:37:20;;;;;;;33.63;18.77;;;;;;;-145.18;100.00;46664.31;4990793;28;20256;-69
2022/11/11 04:42:32;;;;;;;31.57;19.10;;;;;;;-145.18;100.00;46672.13;4990768;28;20251;-69
2022/11/11 04:48:01;;;;;;;40.77;20.50;;;;;;;-145.18;100.00;46666.25;4966094;28;20744;-67
2022/11/11 04:50:30;;;;;;;33.90;19.30;;;;;;;-145.18;100.00;46664.31;4981746;28;20670;-68
2022/11/11 04:52:55;;;;;;;36.80;18.83;;;;;;;-145.18;100.00;46664.31;4973920;28;20269;-68
2022/11/11 04:58:05;;;;;;;38.03;20.47;;;;;;;-145.18;100.00;46660.41;4977308;28;20049;-68
2022/11/11 05:00:31;;;;;;;33.70;18.33;;;;;;;-145.18;100.00;46668.22;4979650;28;20296;-68
2022/11/11 05:03:15;;;;;;;34.43;17.70;;;;;;;-145.18;100.00;46666.25;4999988;28;20125;-68
2022/11/11 05:09:00;;;;;;;33.43;19.17;;;;;;;-145.18;100.00;46664.31;4994392;28;20275;-68
2022/11/11 05:11:34;;;;;;;38.58;20.10;;;;;;;-145.18;100.00;46662.34;4994630;28;20271;-68
2022/11/11 05:22:35;;;;;;;31.80;18.93;;;;;;;-145.18;100.00;46660.41;4994637;28;20326;-68
2022/11/11 05:27:46;;;;;;;43.97;19.87;;;;;;;-145.18;100.00;46662.34;4999292;28;20306;-68
2022/11/11 05:30:14;;;;;;;41.57;20.23;;;;;;;-145.18;100.00;46664.31;5004027;28;20267;-68
2022/11/11 05:32:40;;;;;;;35.73;18.73;;;;;;;-145.18;100.00;46662.34;5003723;28;20406;-68
2022/11/11 05:35:06;;;;;;;43.40;19.87;;;;;;;-145.18;100.00;46666.25;5005136;28;20284;-68
2022/11/11 05:37:32;;;;;;;36.40;18.53;;;;;;;-145.18;100.00;46664.31;4997143;28;20271;-68
2022/11/11 05:39:57;;;;;;;39.80;20.97;;;;;;;-145.18;100.00;46668.22;5007597;28;20648;-69
2022/11/11 05:42:22;;;;;;;35.90;17.63;;;;;;;-145.18;100.00;46666.25;4985616;28;20037;-68
2022/11/11 05:44:48;;;;;;;33.53;18.90;;;;;;;-145.18;100.00;46664.31;5001085;28;20411;-68
2022/11/11 05:47:13;;;;;;;39.37;19.03;;;;;;;-145.18;100.00;46662.34;4996193;28;20069;-68
2022/11/11 05:49:39;;;;;;;32.17;18.83;;;;;;;-145.18;100.00;46664.31;5028105;28;20038;-68
2022/11/11 05:52:05;;;;;;;33.23;18.40;;;;;;;-145.18;100.00;46664.31;5031704;28;20133;-68
2022/11/11 05:54:31;;;;;;;36.43;17.83;;;;;;;-145.18;100.00;46666.25;5031167;28;20029;-68
2022/11/11 05:56:56;;;;;;;34.00;18.47;;;;;;;-145.18;100.00;46660.41;5027902;28;20354;-68
2022/11/11 05:59:22;;;;;;;32.90;18.20;;;;;;;-145.18;100.00;46666.25;5012075;28;20034;-68
2022/11/11 06:01:47;;;;;;;38.43;17.30;;;;;;;-145.18;100.00;46658.44;5011090;28;20113;-68
2022/11/11 06:04:12;;;;;;;34.87;18.67;;;;;;;-145.18;100.00;46660.41;5012404;28;20112;-68
2022/11/11 06:06:38;;;;;;;39.27;17.97;;;;;;;-145.18;100.00;46666.25;4992673;28;20046;-68
2022/11/11 06:09:04;;;;;;;37.40;17.43;;;;;;;-145.18;100.00;46658.44;4973958;28;20027;-68
2022/11/11 06:11:30;;;;;;;33.37;18.17;;;;;;;-145.18;100.00;46664.31;4981157;28;20518;-68
2022/11/11 06:13:55;;;;;;;34.13;18.50;;;;;;;-145.18;100.00;46664.31;4992959;28;20272;-68
2022/11/11 06:16:21;;;;;;;43.47;19.27;;;;;;;-145.18;100.00;46662.34;4992794;28;20069;-68
2022/11/11 06:18:47;;;;;;;35.60;18.67;;;;;;;-145.18;100.00;46666.25;4992608;28;20034;-68
2022/11/11 06:21:12;;;;;;;33.40;19.27;;;;;;;-145.18;100.00;46666.25;4959244;28;20050;-68
2022/11/11 06:23:38;;;;;;;35.40;18.70;;;;;;;-145.18;100.00;46664.31;4992454;28;20546;-68
2022/11/11 06:26:13;;;;;;;35.80;18.73;;;;;;;-145.18;100.00;46668.22;4992786;28;20483;-68
2022/11/11 06:28:55;;;;;;;36.73;18.33;;;;;;;-145.18;100.00;46664.31;4992330;28;20093;-68
2022/11/11 06:31:23;;;;;;;32.37;18.97;;;;;;;-145.18;100.00;46664.31;4992553;28;20676;-68
2022/11/11 06:33:48;;;;;;;34.33;20.27;;;;;;;-145.18;100.00;46662.34;4992217;28;20314;-67
2022/11/11 06:36:16;;;;;;;38.90;19.43;;;;;;;-145.18;100.00;46660.41;4992479;28;20362;-67
2022/11/11 06:38:42;;;;;;;36.97;18.20;;;;;;;-145.18;100.00;46662.34;4992183;28;20033;-67
2022/11/11 06:41:09;;;;;;;35.67;17.43;;;;;;;-145.18;100.00;46666.25;4993486;28;20284;-67
2022/11/11 06:43:34;;;;;;;33.23;19.07;;;;;;;-145.18;100.00;46662.34;4982798;28;20121;-67
2022/11/11 06:46:00;;;;;;;35.03;19.43;;;;;;;-145.18;100.00;46662.34;4982270;28;20355;-68
2022/11/11 06:48:27;;;;;;;30.47;18.17;;;;;;;-145.18;100.00;46670.16;4979683;28;20125;-67
2022/11/11 06:50:54;;;;;;;31.00;17.73;;;;;;;-145.18;100.00;46664.31;4982612;28;20089;-67
2022/11/11 06:53:21;;;;;;;32.07;18.50;;;;;;;-145.18;100.00;46662.34;4989727;28;20279;-67
2022/11/11 06:55:46;;;;;;;31.70;18.30;;;;;;;-145.18;100.00;46666.25;4991807;28;20275;-67
2022/11/11 06:58:17;;;;;;;31.50;18.27;;;;;;;-145.18;100.00;46664.31;4986739;28;20280;-67
2022/11/11 07:00:44;;;;;;;39.83;18.97;;;;;;;-145.18;100.00;46666.25;4988504;28;20041;-67
2022/11/11 07:03:14;;;;;;;38.30;18.97;;;;;;;-145.18;100.00;46666.25;5004527;28;20303;-67
2022/11/11 07:05:41;;;;;;;34.20;18.40;;;;;;;-145.18;100.00;46662.34;5011423;28;20370;-67
2022/11/11 07:08:12;;;;;;;35.17;19.03;;;;;;;-145.18;100.00;46666.25;5002524;28;20279;-67
2022/11/11 07:10:41;;;;;;;47.20;20.43;;;;;;;-145.18;100.00;46670.16;5010710;28;20262;-67
2022/11/11 07:13:07;;;;;;;47.07;22.27;;;;;;;-145.18;100.00;46672.13;5014616;28;20297;-67
2022/11/11 07:15:33;;;;;;;40.70;19.43;;;;;;;-145.18;100.00;46668.22;5030962;28;20266;-67
2022/11/11 07:17:59;;;;;;;38.70;20.70;;;;;;;-145.18;100.00;46658.44;5012938;28;20115;-67
2022/11/11 07:20:24;;;;;;;38.80;20.00;;;;;;;-145.18;100.00;46662.34;5011478;28;20116;-67
2022/11/11 07:22:50;;;;;;;41.10;21.87;;;;;;;-145.18;100.00;46664.31;5010418;28;20350;-67
2022/11/11 07:25:15;;;;;;;39.07;21.90;;;;;;;-145.18;100.00;46666.25;5011023;28;20038;-67
2022/11/11 07:27:41;;;;;;;38.33;21.40;;;;;;;-145.18;100.00;46668.22;5010478;28;20057;-67
2022/11/11 07:30:08;;;;;;;40.07;21.13;;;;;;;-145.18;100.00;46672.13;5011192;28;20394;-67
2022/11/11 07:32:34;;;;;;;38.83;21.00;;;;;;;-145.18;100.00;46664.31;5010638;28;20279;-67
2022/11/11 07:35:00;;;;;;;44.40;21.67;;;;;;;-145.18;100.00;46668.22;5011237;28;20296;-67
2022/11/11 07:37:26;;;;;;;40.47;20.33;;;;;;;-145.18;100.00;46670.16;5017277;28;20301;-67
2022/11/11 07:39:51;;;;;;;52.83;23.10;;;;;;;-145.18;100.00;46666.25;5030494;28;20044;-67
2022/11/11 07:42:16;;;;;;;52.67;22.20;;;;;;;-145.18;100.00;46668.22;5030296;28;20041;-67
2022/11/11 07:44:42;;;;;;;41.70;21.70;;;;;;;-145.18;100.00;46670.16;5030451;28;20033;-67
2022/11/11 07:47:07;;;;;;;45.50;22.77;;;;;;;-145.18;100.00;46672.13;5030471;28;20037;-67
2022/11/11 07:49:33;;;;;;;38.23;21.33;;;;;;;-145.18;100.00;46668.22;5030224;28;20037;-67
2022/11/11 07:51:58;;;;;;;47.67;22.30;;;;;;;-145.18;100.00;46670.16;5012600;28;20038;-67
2022/11/11 07:54:24;;;;;;;45.87;21.77;;;;;;;-145.18;100.00;46670.16;5030381;28;20113;-67
2022/11/11 07:56:49;;;;;;;40.93;22.40;;;;;;;-145.18;100.00;46668.22;5030031;28;20504;-67
2022/11/11 07:59:14;;;;;;;37.37;20.87;;;;;;;-145.18;100.00;46668.22;5030106;28;20037;-67
2022/11/11 08:01:39;;;;;;;56.63;21.77;;;;;;;-145.18;100.00;46674.06;5029443;28;20152;-69
2022/11/11 08:04:05;;;;;;;43.10;21.50;;;;;;;-145.18;100.00;46670.16;5030487;28;20038;-67
2022/11/11 08:06:31;;;;;;;45.23;23.40;;;;;;;-145.18;100.00;46668.22;5029669;28;20046;-67
2022/11/11 08:08:57;;;;;;;39.83;22.20;;;;;;;-145.18;100.00;46670.16;5029964;28;20409;-68
2022/11/11 08:14:07;;;;;;;42.43;20.60;;;;;;;-145.18;100.00;46672.13;5030465;28;20047;-67
2022/11/11 08:16:32;;;;;;;42.17;22.27;;;;;;;-145.18;100.00;46670.16;5027857;28;20271;-67
2022/11/11 08:18:57;;;;;;;40.43;21.47;;;;;;;-145.18;100.00;46666.25;5009838;28;20504;-67
2022/11/11 08:21:23;;;;;;;38.83;20.63;;;;;;;-145.18;100.00;46670.16;5010266;28;20040;-67
2022/11/11 08:23:50;;;;;;;34.17;20.37;;;;;;;-145.18;100.00;46672.13;5009760;28;20510;-67
2022/11/11 08:26:16;;;;;;;39.87;21.10;;;;;;;-145.18;100.00;46674.06;5010259;28;20483;-67
2022/11/11 08:28:41;;;;;;;40.20;20.80;;;;;;;-145.18;100.00;46672.13;5009820;28;20271;-67
2022/11/11 08:31:08;;;;;;;43.27;19.37;;;;;;;-145.18;100.00;46672.13;5010370;28;20065;-67
2022/11/11 08:33:33;;;;;;;37.20;20.30;;;;;;;-145.18;100.00;46666.25;4996184;28;20031;-67
2022/11/11 08:35:59;;;;;;;42.40;20.73;;;;;;;-145.18;100.00;46674.06;4990444;28;20330;-67
2022/11/11 08:38:24;;;;;;;36.63;19.70;;;;;;;-145.18;100.00;46672.13;5005892;28;20064;-67
2022/11/11 08:40:51;;;;;;;37.50;18.63;;;;;;;-145.18;100.00;46681.88;5010124;28;20038;-67
2022/11/11 08:43:16;;;;;;;33.73;18.83;;;;;;;-145.18;100.00;46674.06;4992512;28;20141;-67
2022/11/11 08:45:42;;;;;;;30.97;18.37;;;;;;;-145.18;100.00;46674.06;5009944;28;20706;-67
2022/11/11 08:48:11;;;;;;;38.23;20.03;;;;;;;-145.18;100.00;46668.22;5010252;28;20439;-67
2022/11/11 08:50:38;;;;;;;33.43;20.07;;;;;;;-145.18;100.00;46674.06;5009973;28;20089;-68
2022/11/11 08:53:06;;;;;;;35.83;20.87;;;;;;;-145.18;100.00;46672.13;5007217;28;20267;-67
2022/11/11 08:55:33;;;;;;;40.80;21.03;;;;;;;-145.18;100.00;46670.16;4990619;28;20272;-67
2022/11/11 08:58:00;;;;;;;35.13;19.57;;;;;;;-145.18;100.00;46677.97;5001381;28;20307;-67
2022/11/11 09:00:25;;;;;;;34.10;19.40;;;;;;;-145.18;100.00;46677.97;5010109;28;20303;-67
2022/11/11 09:02:51;;;;;;;36.93;19.60;;;;;;;-145.18;100.00;46677.97;4998701;28;20297;-67
2022/11/11 09:05:16;;;;;;;33.50;19.17;;;;;;;-145.18;100.00;46679.94;5009672;28;20042;-67
2022/11/11 09:07:42;;;;;;;32.47;19.43;;;;;;;-145.18;100.00;46674.06;5018021;28;20053;-67
2022/11/11 09:10:08;;;;;;;32.97;18.90;;;;;;;-145.18;100.00;46677.97;5029372;28;20113;-67
2022/11/11 09:12:33;;;;;;;35.50;20.07;;;;;;;-145.18;100.00;46676.03;5022369;28;20035;-67
2022/11/11 09:15:00;;;;;;;37.50;19.97;;;;;;;-145.18;100.00;46679.94;5009665;28;20520;-68
2022/11/11 09:17:25;;;;;;;35.53;18.93;;;;;;;-145.18;100.00;46677.97;5001250;28;20034;-67
2022/11/11 09:19:51;;;;;;;31.57;17.90;;;;;;;-145.18;100.00;46681.88;5008546;28;20377;-67
2022/11/11 09:22:16;;;;;;;31.97;18.70;;;;;;;-145.18;100.00;46681.88;5008460;28;20042;-67
2022/11/11 09:24:41;;;;;;;28.63;17.33;;;;;;;-145.18;100.00;46677.97;5004877;28;20065;-68
2022/11/11 09:27:09;;;;;;;30.90;18.97;;;;;;;-145.18;100.00;46676.03;5009811;28;20038;-68
2022/11/11 09:29:34;;;;;;;32.30;18.33;;;;;;;-145.18;100.00;46681.88;5009551;28;20100;-67
2022/11/11 09:31:59;;;;;;;31.40;18.17;;;;;;;-145.18;100.00;46679.94;5009665;28;20279;-67
2022/11/11 09:34:25;;;;;;;35.10;18.90;;;;;;;-145.18;100.00;46679.94;5009888;28;20026;-68
2022/11/11 09:36:50;;;;;;;33.63;18.73;;;;;;;-145.18;100.00;46677.97;5009715;28;20108;-68
2022/11/11 09:39:15;;;;;;;30.30;17.73;;;;;;;-145.18;100.00;46679.94;5009629;28;20444;-68
2022/11/11 09:41:48;;;;;;;39.27;19.37;;;;;;;-145.18;100.00;46677.97;5009392;28;20038;-68
2022/11/11 09:44:37;;;;;;;37.43;19.27;;;;;;;-145.18;100.00;46676.03;5009685;28;20030;-68
2022/11/11 09:47:25;;;;;;;33.63;18.73;;;;;;;-145.18;100.00;46676.03;5011673;28;20255;-68
2022/11/11 09:50:16;;;;;;;33.83;18.43;;;;;;;-145.18;100.00;46676.03;5012526;28;20747;-68
2022/11/11 09:52:44;;;;;;;38.17;19.67;;;;;;;-145.18;100.00;46677.97;5012724;28;20263;-68
2022/11/11 09:55:31;;;;;;;30.87;19.47;;;;;;;-145.18;100.00;46676.03;5013107;28;20271;-68
2022/11/11 09:58:01;;;;;;;33.37;18.37;;;;;;;-145.18;100.00;46681.88;5010240;28;20532;-68
2022/11/11 10:00:32;;;;;;;34.47;17.50;;;;;;;-145.18;100.00;46676.03;5012951;28;20811;-68
2022/11/11 10:03:19;;;;;;;27.67;17.23;;;;;;;-145.18;100.00;46679.94;5012093;28;20358;-68
2022/11/11 10:05:47;;;;;;;33.07;17.83;;;;;;;-145.18;100.00;46677.97;4993223;28;20272;-68
2022/11/11 10:08:19;;;;;;;32.97;17.10;;;;;;;-145.18;100.00;46683.84;5002581;28;20791;-68
2022/11/11 10:10:46;;;;;;;29.77;19.63;;;;;;;-145.18;100.00;46683.84;5012779;28;20263;-68
2022/11/11 10:13:19;;;;;;;34.07;18.13;;;;;;;-145.18;100.00;46679.94;5003762;28;20695;-68
2022/11/11 10:16:00;;;;;;;34.70;19.43;;;;;;;-145.18;100.00;46683.84;5029610;28;20270;-69
2022/11/11 10:18:25;;;;;;;33.73;18.30;;;;;;;-145.18;100.00;46687.75;5023707;28;20268;-67
2022/11/11 10:20:55;;;;;;;34.83;19.37;;;;;;;-145.18;100.00;46681.88;4992815;28;20423;-67
2022/11/11 10:23:34;;;;;;;31.07;18.50;;;;;;;-145.18;100.00;46683.84;5008025;28;20139;-67
2022/11/11 10:26:14;;;;;;;31.10;17.77;;;;;;;-145.18;100.00;46685.78;5031916;28;20258;-67
2022/11/11 10:28:44;;;;;;;30.93;19.13;;;;;;;-145.18;100.00;46683.84;5031502;28;20104;-69
2022/11/11 10:31:17;;;;;;;33.93;18.70;;;;;;;-145.18;100.00;46689.69;5032146;28;20270;-69
2022/11/11 10:33:49;;;;;;;30.40;18.50;;;;;;;-145.18;100.00;46687.75;5031519;28;20073;-69
2022/11/11 10:36:18;;;;;;;28.20;18.27;;;;;;;-145.18;100.00;46687.75;5032149;28;20037;-69
2022/11/11 10:38:58;;;;;;;28.30;16.43;;;;;;;-145.18;100.00;46689.69;5018620;28;20038;-69
2022/11/11 10:41:53;;;;;;;29.80;19.30;;;;;;;-145.18;100.00;46693.59;5012323;28;20037;-69
2022/11/11 10:44:26;;;;;;;30.20;18.43;;;;;;;-145.18;100.00;46693.59;4979434;28;20491;-69
2022/11/11 10:47:11;;;;;;;29.33;19.20;;;;;;;-145.18;100.00;46691.66;4992366;28;20030;-69
2022/11/11 10:49:57;;;;;;;29.83;18.90;;;;;;;-145.18;100.00;46695.56;5010728;28;20065;-69
2022/11/11 10:53:03;;;;;;;36.83;17.97;;;;;;;-145.18;100.00;46691.66;5011988;28;20034;-69
2022/11/11 10:55:40;;;;;;;31.17;18.27;;;;;;;-145.18;100.00;46687.75;4978369;28;20447;-69
2022/11/11 10:58:21;;;;;;;27.07;17.57;;;;;;;-145.18;100.00;46689.69;5011160;28;20065;-69
2022/11/11 11:00:51;;;;;;;25.90;17.17;;;;;;;-145.18;100.00;46689.69;5011660;28;20474;-69
2022/11/11 11:03:49;;;;;;;29.23;18.43;;;;;;;-145.18;100.00;46685.78;5016252;28;20781;-69
2022/11/11 11:06:26;;;;;;;26.60;17.30;;;;;;;-145.18;100.00;46689.69;5012234;28;20406;-69
2022/11/11 11:08:56;;;;;;;29.33;16.33;;;;;;;-145.18;100.00;46679.94;5019397;28;20470;-69
2022/11/11 11:11:38;;;;;;;26.27;17.50;;;;;;;-145.18;100.00;46679.94;5011558;28;20465;-69
2022/11/11 11:14:14;;;;;;;29.33;16.97;;;;;;;-145.18;100.00;46677.97;5022769;28;20030;-69
2022/11/11 11:16:49;;;;;;;26.97;17.30;;;;;;;-145.18;100.00;46670.16;5031051;28;20068;-69
2022/11/11 11:19:25;;;;;;;28.17;17.83;;;;;;;-145.18;100.00;46664.31;5030561;28;20684;-69
2022/11/11 11:21:59;;;;;;;29.02;17.67;;;;;;;-145.18;100.00;46660.41;5031089;28;20108;-69
2022/11/11 11:24:24;;;;;;;27.03;17.50;;;;;;;-145.18;100.00;46642.81;5015894;28;20029;-70
2022/11/11 11:26:53;;;;;;;25.90;17.60;;;;;;;-145.18;100.00;46611.56;5011233;28;20040;-70
2022/11/11 11:29:27;;;;;;;31.47;17.80;;;;;;;-145.18;100.00;46588.13;5010741;28;20442;-70
2022/11/11 11:31:53;;;;;;;27.93;17.33;;;;;;;-145.18;100.00;46588.13;5011143;28;20026;-70
2022/11/11 11:34:18;;;;;;;25.90;16.50;;;;;;;-145.18;100.00;46586.16;5010915;28;20078;-70
2022/11/11 11:36:58;;;;;;;25.07;17.13;;;;;;;-145.18;100.00;46576.41;5011135;28;20045;-70
2022/11/11 11:39:37;;;;;;;28.03;17.73;;;;;;;-145.18;100.00;46578.34;5024799;28;20052;-70
2022/11/11 11:42:03;;;;;;;30.50;18.57;;;;;;;-145.18;100.00;46576.41;5013078;28;20025;-70
2022/11/11 11:44:39;;;;;;;25.73;17.33;;;;;;;-145.18;100.00;46582.25;5015963;28;20065;-69
2022/11/11 11:47:22;;;;;;;25.80;16.52;;;;;;;-145.18;100.00;46576.41;5011125;28;20034;-70
2022/11/11 11:50:00;;;;;;;25.93;16.83;;;;;;;-145.18;100.00;46586.16;5010529;28;20569;-70
2022/11/11 11:52:43;;;;;;;26.27;16.87;;;;;;;-145.18;100.00;46586.16;5004779;28;20041;-70
2022/11/11 11:55:18;;;;;;;27.93;16.97;;;;;;;-145.18;100.00;46592.03;4983586;28;20042;-70
2022/11/11 11:58:02;;;;;;;26.35;17.65;;;;;;;-145.18;100.00;46611.56;4991242;28;20036;-70
2022/11/11 12:00:30;;;;;;;26.73;16.70;;;;;;;-145.18;100.00;46621.31;4990999;28;20036;-70
2022/11/11 12:03:05;;;;;;;25.77;16.73;;;;;;;-145.18;100.00;46625.22;4991731;28;20053;-70
2022/11/11 12:05:30;;;;;;;27.30;17.05;;;;;;;-145.18;100.00;46642.81;5010184;28;20034;-70
2022/11/11 12:08:30;;;;;;;27.87;16.47;;;;;;;-145.18;100.00;46646.72;5011082;28;20029;-70
2022/11/11 12:11:17;;;;;;;29.47;15.90;;;;;;;-145.18;100.00;46635.00;5030182;28;20086;-70
2022/11/11 12:13:58;;;;;;;24.83;15.57;;;;;;;-145.18;100.00;46642.81;5029994;28;20021;-70
2022/11/11 12:16:24;;;;;;;24.50;16.03;;;;;;;-145.18;100.00;46636.94;5030785;28;20053;-71
2022/11/11 12:19:24;;;;;;;19.13;14.27;;;;;;;-145.18;100.00;46679.94;5022152;28;20022;-70